Time;durP1;ratioP1;P1;durP2;ratioP2;P2;SDS_P1;SDS_P2;PMS_P1;PMS_P2;Temp;Humidity;BMP_temperature;BMP_pressure;BME280_temperature;BME280_humidity;BME280_pressure;Samples;Min_cycle;Max_cycle;Signal;HPM_P1;HPM_P2
2022/02/14 00:01:40;;;;;;;0.70;0.50;;;7.60;99.90;;;;;;5032189;28;20203;-70
2022/02/14 00:04:06;;;;;;;0.87;0.87;;;7.60;99.90;;;;;;5035430;28;20175;-70
2022/02/14 00:06:32;;;;;;;0.70;0.63;;;7.60;99.90;;;;;;5035399;28;20251;-70
2022/02/14 00:08:57;;;;;;;0.70;0.60;;;7.50;99.90;;;;;;5026785;28;20253;-70
2022/02/14 00:11:24;;;;;;;0.70;0.50;;;7.60;99.90;;;;;;5035886;28;20230;-71
2022/02/14 00:13:51;;;;;;;0.70;0.50;;;7.50;99.90;;;;;;5034816;28;20222;-70
2022/02/14 00:16:16;;;;;;;1.23;0.63;;;7.50;99.90;;;;;;5031796;28;20841;-70
2022/02/14 00:18:42;;;;;;;0.80;0.70;;;7.40;99.90;;;;;;5034651;28;20468;-70
2022/02/14 00:21:08;;;;;;;0.70;0.50;;;7.40;99.90;;;;;;5022664;28;20214;-71
2022/02/14 00:23:33;;;;;;;1.13;1.03;;;7.30;99.90;;;;;;5028489;28;20191;-71
2022/02/14 00:25:59;;;;;;;1.63;1.33;;;7.30;99.90;;;;;;5014851;28;20164;-70
2022/02/14 00:28:24;;;;;;;0.70;0.50;;;7.20;99.90;;;;;;5014785;28;20169;-70
2022/02/14 00:30:50;;;;;;;0.80;0.60;;;7.20;99.90;;;;;;5028041;28;20548;-71
2022/02/14 00:33:16;;;;;;;0.80;0.60;;;7.20;99.90;;;;;;5042875;28;20200;-71
2022/02/14 00:35:41;;;;;;;1.00;0.90;;;7.20;99.90;;;;;;5032089;28;20634;-71
2022/02/14 00:38:07;;;;;;;0.70;0.50;;;7.20;99.90;;;;;;5034224;28;20255;-70
2022/02/14 00:40:32;;;;;;;0.70;0.50;;;7.20;99.90;;;;;;5024515;28;20202;-72
2022/02/14 00:42:58;;;;;;;2.30;1.80;;;7.20;99.90;;;;;;5034040;28;20172;-70
2022/02/14 00:45:23;;;;;;;0.70;0.67;;;7.10;99.90;;;;;;5034282;28;20164;-72
2022/02/14 00:47:49;;;;;;;0.70;0.50;;;7.10;99.90;;;;;;5034209;28;20586;-71
2022/02/14 00:50:16;;;;;;;0.80;0.77;;;7.10;99.90;;;;;;5022938;28;20665;-71
2022/02/14 00:52:42;;;;;;;0.70;0.50;;;7.00;99.90;;;;;;5016494;28;20222;-72
2022/02/14 00:55:12;;;;;;;1.30;1.20;;;7.10;99.90;;;;;;5039861;28;20453;-71
2022/02/14 00:57:38;;;;;;;0.70;0.60;;;7.20;99.90;;;;;;5029442;28;20422;-71
2022/02/14 01:00:06;;;;;;;1.00;0.63;;;7.30;99.90;;;;;;5031047;28;20957;-73
2022/02/14 01:02:31;;;;;;;0.70;0.60;;;7.30;99.90;;;;;;5033727;28;20516;-71
2022/02/14 01:04:57;;;;;;;0.70;0.50;;;7.40;99.90;;;;;;5033946;28;20455;-71
2022/02/14 01:07:23;;;;;;;0.70;0.50;;;7.40;99.90;;;;;;5029197;28;20214;-71
2022/02/14 01:09:49;;;;;;;1.10;0.77;;;7.50;99.90;;;;;;5033909;28;20191;-72
2022/02/14 01:12:15;;;;;;;0.70;0.50;;;7.60;99.90;;;;;;5031341;28;20449;-71
2022/02/14 01:14:41;;;;;;;0.70;0.60;;;7.70;99.90;;;;;;5032827;28;20249;-71
2022/02/14 01:17:07;;;;;;;0.70;0.60;;;7.80;99.90;;;;;;5036497;28;20163;-71
2022/02/14 01:19:33;;;;;;;0.70;0.60;;;8.00;99.90;;;;;;5033370;28;20446;-71
2022/02/14 01:21:59;;;;;;;0.87;0.77;;;8.10;99.90;;;;;;5033190;28;20910;-71
2022/02/14 01:24:24;;;;;;;0.80;0.60;;;8.20;99.90;;;;;;5036585;28;20261;-71
2022/02/14 01:26:50;;;;;;;0.70;0.50;;;8.30;99.90;;;;;;5041977;28;20539;-71
2022/02/14 01:29:17;;;;;;;0.70;0.50;;;8.40;99.90;;;;;;5031121;28;20726;-71
2022/02/14 01:31:42;;;;;;;0.70;0.50;;;8.40;99.90;;;;;;5032023;28;20171;-71
2022/02/14 01:34:08;;;;;;;0.93;0.83;;;8.30;99.90;;;;;;5027201;28;20516;-71
2022/02/14 01:36:33;;;;;;;1.80;1.70;;;8.30;99.90;;;;;;5031923;28;20174;-71
2022/02/14 01:38:59;;;;;;;0.70;0.50;;;8.30;99.90;;;;;;5028030;28;20195;-72
2022/02/14 01:41:24;;;;;;;0.70;0.50;;;8.30;99.90;;;;;;5036585;28;20203;-71
2022/02/14 01:43:50;;;;;;;0.70;0.50;;;8.30;99.90;;;;;;5032473;28;20175;-71
2022/02/14 01:46:16;;;;;;;0.70;0.43;;;8.30;99.90;;;;;;5040302;28;20166;-71
2022/02/14 01:48:41;;;;;;;0.70;0.50;;;8.20;99.90;;;;;;5038689;28;20540;-71
2022/02/14 01:51:08;;;;;;;0.70;0.50;;;8.20;99.90;;;;;;5039918;28;20191;-71
2022/02/14 01:53:33;;;;;;;0.70;0.50;;;8.20;99.90;;;;;;5029028;28;20198;-71
2022/02/14 01:55:59;;;;;;;0.70;0.50;;;8.30;99.90;;;;;;5031139;28;20811;-71
2022/02/14 01:58:25;;;;;;;0.70;0.53;;;8.20;99.90;;;;;;5034042;28;20179;-71
2022/02/14 02:00:51;;;;;;;0.70;0.50;;;8.20;99.90;;;;;;5032918;28;20183;-72
2022/02/14 02:03:17;;;;;;;0.80;0.70;;;8.30;99.90;;;;;;5032443;28;20406;-71
2022/02/14 02:05:45;;;;;;;1.20;1.10;;;8.30;99.90;;;;;;5025763;28;20180;-71
2022/02/14 02:08:12;;;;;;;0.70;0.50;;;8.30;99.90;;;;;;5012938;28;20410;-71
2022/02/14 02:10:38;;;;;;;0.70;0.50;;;8.50;99.90;;;;;;5013252;28;20450;-71
2022/02/14 02:13:04;;;;;;;1.00;0.60;;;8.60;99.90;;;;;;5025028;28;20923;-71
2022/02/14 02:15:31;;;;;;;0.70;0.50;;;8.80;99.90;;;;;;5032385;28;20280;-72
2022/02/14 02:17:57;;;;;;;0.70;0.47;;;8.90;99.90;;;;;;5032542;28;20192;-71
2022/02/14 02:20:22;;;;;;;0.70;0.50;;;8.90;99.90;;;;;;5036976;28;20449;-72
2022/02/14 02:22:51;;;;;;;0.70;0.50;;;9.00;99.90;;;;;;5035623;28;20437;-71
2022/02/14 02:25:17;;;;;;;0.70;0.50;;;9.00;99.90;;;;;;5041461;28;20175;-72
2022/02/14 02:27:43;;;;;;;0.70;0.50;;;9.10;99.90;;;;;;5036868;28;20432;-71
2022/02/14 02:30:12;;;;;;;0.70;0.60;;;9.20;99.90;;;;;;5032142;28;20460;-72
2022/02/14 02:32:38;;;;;;;1.57;1.47;;;9.20;99.90;;;;;;5034280;28;20775;-71
2022/02/14 02:35:05;;;;;;;0.70;0.50;;;9.20;99.90;;;;;;5034315;28;20453;-71
2022/02/14 02:37:31;;;;;;;0.70;0.50;;;9.20;99.90;;;;;;5041210;28;20187;-71
2022/02/14 02:39:57;;;;;;;0.70;0.50;;;9.20;99.90;;;;;;5032730;28;20499;-71
2022/02/14 02:42:24;;;;;;;0.70;0.50;;;9.40;99.90;;;;;;5034953;28;20532;-72
2022/02/14 02:44:51;;;;;;;0.70;0.50;;;9.50;99.90;;;;;;5027323;28;20415;-71
2022/02/14 02:47:19;;;;;;;0.70;0.50;;;9.50;99.90;;;;;;5032725;28;20804;-71
2022/02/14 02:49:45;;;;;;;0.70;0.50;;;9.50;99.90;;;;;;5032047;28;20487;-72
2022/02/14 02:52:13;;;;;;;0.70;0.50;;;9.50;99.90;;;;;;5040362;28;20540;-71
2022/02/14 02:54:38;;;;;;;0.70;0.50;;;9.50;99.90;;;;;;5037829;28;20993;-71
2022/02/14 02:57:05;;;;;;;0.70;0.50;;;9.50;99.90;;;;;;5024525;28;20426;-72
2022/02/14 02:59:34;;;;;;;0.70;0.60;;;9.50;99.90;;;;;;5030464;28;20916;-72
2022/02/14 03:02:02;;;;;;;1.00;0.90;;;9.40;99.90;;;;;;5027345;28;20424;-71
2022/02/14 03:04:27;;;;;;;0.70;0.60;;;9.50;99.90;;;;;;5012006;28;20899;-71
2022/02/14 03:06:54;;;;;;;0.70;0.50;;;9.40;99.90;;;;;;5012267;28;20404;-71
2022/02/14 03:09:19;;;;;;;0.80;0.60;;;9.40;99.90;;;;;;5017817;28;20172;-72
2022/02/14 03:11:45;;;;;;;0.70;0.50;;;9.40;99.90;;;;;;5049240;28;20515;-71
2022/02/14 03:14:12;;;;;;;0.70;0.60;;;9.40;99.90;;;;;;5039867;28;20203;-70
2022/02/14 03:16:38;;;;;;;0.90;0.90;;;9.40;99.90;;;;;;5032846;28;20297;-71
2022/02/14 03:19:04;;;;;;;0.70;0.50;;;9.40;99.90;;;;;;5040503;28;20911;-71
2022/02/14 03:21:30;;;;;;;1.20;0.80;;;9.40;99.90;;;;;;5031414;28;20451;-71
2022/02/14 03:23:56;;;;;;;0.80;0.53;;;9.40;99.90;;;;;;5037437;28;20176;-71
2022/02/14 03:26:22;;;;;;;0.70;0.50;;;9.30;99.90;;;;;;5034690;28;20175;-71
2022/02/14 03:28:50;;;;;;;0.70;0.50;;;9.30;99.90;;;;;;5033438;28;20939;-71
2022/02/14 03:31:16;;;;;;;0.70;0.50;;;9.40;99.90;;;;;;5035206;28;20281;-72
2022/02/14 03:33:43;;;;;;;0.90;0.90;;;9.30;99.90;;;;;;5037008;28;20495;-71
2022/02/14 03:36:10;;;;;;;0.80;0.60;;;9.30;99.90;;;;;;5036337;28;20868;-71
2022/02/14 03:38:36;;;;;;;0.70;0.50;;;9.30;99.90;;;;;;5040243;28;20529;-71
2022/02/14 03:41:02;;;;;;;1.57;0.93;;;9.20;99.90;;;;;;5035396;28;20532;-72
2022/02/14 03:43:27;;;;;;;0.80;0.70;;;9.20;99.90;;;;;;5035043;28;20179;-71
2022/02/14 03:45:53;;;;;;;0.70;0.50;;;9.20;99.90;;;;;;5038684;28;20942;-71
2022/02/14 03:48:19;;;;;;;0.70;0.50;;;9.10;99.90;;;;;;5028913;28;20786;-71
2022/02/14 03:50:44;;;;;;;0.70;0.50;;;9.10;99.90;;;;;;5034508;28;20266;-71
2022/02/14 03:53:10;;;;;;;0.70;0.50;;;9.00;99.90;;;;;;5044780;28;20437;-72
2022/02/14 03:55:36;;;;;;;0.80;0.80;;;9.00;99.90;;;;;;5033898;28;20195;-71
2022/02/14 03:58:02;;;;;;;0.70;0.50;;;8.90;99.90;;;;;;5042352;28;20494;-71
2022/02/14 04:00:28;;;;;;;0.70;0.47;;;8.90;99.90;;;;;;5033961;28;20278;-71
2022/02/14 04:02:53;;;;;;;0.70;0.47;;;8.80;99.90;;;;;;5033284;28;20571;-71
2022/02/14 04:05:20;;;;;;;0.70;0.50;;;8.80;99.90;;;;;;5028580;28;20237;-71
2022/02/14 04:07:47;;;;;;;0.80;0.80;;;8.70;99.90;;;;;;5034969;28;20656;-71
2022/02/14 04:10:15;;;;;;;0.70;0.50;;;8.70;99.90;;;;;;5034871;28;20536;-72
2022/02/14 04:12:41;;;;;;;0.70;0.50;;;8.70;99.90;;;;;;5020501;28;20887;-72
2022/02/14 04:15:08;;;;;;;0.90;0.80;;;8.60;99.90;;;;;;5015398;28;20459;-71
2022/02/14 04:17:34;;;;;;;0.70;0.50;;;8.60;99.90;;;;;;5027042;28;20426;-72
2022/02/14 04:20:00;;;;;;;0.70;0.50;;;8.60;99.90;;;;;;5034636;28;20437;-71
2022/02/14 04:22:26;;;;;;;0.70;0.50;;;8.50;99.90;;;;;;5021438;28;21188;-71
2022/02/14 04:24:52;;;;;;;0.70;0.50;;;8.50;99.90;;;;;;5022764;28;20175;-71
2022/02/14 04:27:18;;;;;;;0.70;0.50;;;8.60;99.90;;;;;;5038411;28;20664;-72
2022/02/14 04:29:44;;;;;;;0.70;0.50;;;8.50;99.90;;;;;;5046407;28;20446;-71
2022/02/14 04:32:09;;;;;;;0.70;0.50;;;8.50;99.90;;;;;;5032040;28;20712;-71
2022/02/14 04:34:35;;;;;;;0.70;0.60;;;8.50;99.90;;;;;;5023598;28;20238;-70
2022/02/14 04:37:01;;;;;;;0.70;0.60;;;8.40;99.90;;;;;;5031002;28;20181;-71
2022/02/14 04:39:27;;;;;;;0.80;0.70;;;8.50;99.90;;;;;;5042091;28;20880;-71
2022/02/14 04:41:52;;;;;;;0.70;0.50;;;8.50;99.90;;;;;;5034252;28;20172;-71
2022/02/14 04:44:18;;;;;;;0.70;0.50;;;8.60;99.90;;;;;;5027317;28;20185;-72
2022/02/14 04:46:44;;;;;;;0.87;0.87;;;8.60;99.90;;;;;;5034136;28;20183;-71
2022/02/14 04:49:09;;;;;;;0.70;0.50;;;8.70;99.90;;;;;;5031798;28;20691;-71
2022/02/14 04:51:35;;;;;;;0.70;0.60;;;8.60;99.90;;;;;;5033354;28;20568;-71
2022/02/14 04:54:02;;;;;;;0.70;0.50;;;8.70;99.90;;;;;;5033212;28;20195;-72
2022/02/14 04:56:28;;;;;;;7.57;3.23;;;8.70;99.90;;;;;;5039741;28;20183;-71
2022/02/14 04:58:53;;;;;;;0.83;0.83;;;8.70;99.90;;;;;;5041066;28;20803;-70
2022/02/14 05:01:19;;;;;;;0.70;0.50;;;8.70;99.90;;;;;;5039654;28;20445;-70
2022/02/14 05:03:45;;;;;;;0.70;0.50;;;8.80;99.90;;;;;;5035657;28;20191;-71
2022/02/14 05:06:10;;;;;;;0.70;0.50;;;8.80;99.90;;;;;;5041645;28;20419;-72
2022/02/14 05:08:37;;;;;;;0.70;0.50;;;8.80;99.90;;;;;;5035225;28;20183;-71
2022/02/14 05:11:02;;;;;;;1.63;1.33;;;8.80;99.90;;;;;;5033729;28;20215;-72
2022/02/14 05:13:28;;;;;;;2.30;2.10;;;8.80;99.90;;;;;;5035285;28;20458;-72
2022/02/14 05:15:54;;;;;;;0.70;0.50;;;8.80;99.90;;;;;;5040563;28;20199;-72
2022/02/14 05:18:19;;;;;;;0.70;0.50;;;8.90;99.90;;;;;;5035458;28;20164;-71
2022/02/14 05:20:45;;;;;;;0.97;0.87;;;8.90;99.90;;;;;;5033582;28;20265;-71
2022/02/14 05:23:10;;;;;;;0.70;0.50;;;8.90;99.90;;;;;;5041133;28;20178;-71
2022/02/14 05:25:36;;;;;;;0.70;0.50;;;8.90;99.90;;;;;;5034771;28;20172;-70
2022/02/14 05:28:11;;;;;;;1.07;1.00;;;9.00;99.90;;;;;;5038745;28;20175;-71
2022/02/14 05:30:38;;;;;;;0.70;0.57;;;9.00;99.90;;;;;;5040055;28;20454;-71
2022/02/14 05:33:04;;;;;;;0.70;0.50;;;9.10;99.90;;;;;;5043056;28;20437;-72
2022/02/14 05:35:30;;;;;;;0.70;0.50;;;9.10;99.90;;;;;;5033531;28;20450;-71
2022/02/14 05:37:56;;;;;;;0.80;0.60;;;9.20;99.90;;;;;;5034306;28;20438;-71
2022/02/14 05:40:21;;;;;;;1.37;1.00;;;9.20;99.90;;;;;;5033174;28;20306;-71
2022/02/14 05:42:47;;;;;;;0.70;0.50;;;9.30;99.90;;;;;;5032812;28;20655;-71
2022/02/14 05:45:13;;;;;;;0.70;0.50;;;9.40;99.90;;;;;;5028776;28;20182;-71
2022/02/14 05:47:38;;;;;;;0.70;0.50;;;9.40;99.90;;;;;;5034796;28;20183;-71
2022/02/14 05:50:05;;;;;;;0.70;0.40;;;9.50;99.90;;;;;;5030890;28;20199;-72
2022/02/14 05:52:31;;;;;;;0.90;0.80;;;9.60;99.90;;;;;;5032606;28;20188;-71
2022/02/14 05:54:57;;;;;;;0.70;0.60;;;9.60;99.90;;;;;;5038163;28;20472;-71
2022/02/14 05:57:22;;;;;;;0.70;0.50;;;9.70;99.90;;;;;;5038315;28;20184;-72
2022/02/14 05:59:48;;;;;;;1.40;0.70;;;9.80;99.90;;;;;;5035411;28;20192;-71
2022/02/14 06:02:13;;;;;;;2.40;2.20;;;9.90;99.90;;;;;;5031250;28;20187;-71
2022/02/14 06:04:39;;;;;;;0.70;0.50;;;9.90;99.90;;;;;;5014441;28;20230;-71
2022/02/14 06:07:05;;;;;;;0.90;0.90;;;9.90;99.90;;;;;;5032688;28;20172;-72
2022/02/14 06:09:31;;;;;;;0.70;0.60;;;10.00;99.90;;;;;;5032524;28;20179;-72
2022/02/14 06:11:59;;;;;;;1.17;1.07;;;10.00;99.90;;;;;;5036029;28;20434;-72
2022/02/14 06:14:25;;;;;;;1.30;1.20;;;10.00;99.90;;;;;;5038856;28;20236;-72
2022/02/14 06:16:51;;;;;;;0.70;0.50;;;10.00;99.90;;;;;;5038937;28;20425;-72
2022/02/14 06:19:16;;;;;;;0.70;0.50;;;10.00;99.90;;;;;;5034617;28;20242;-72
2022/02/14 06:21:42;;;;;;;0.70;0.50;;;10.10;99.90;;;;;;5033629;28;20489;-71
2022/02/14 06:24:08;;;;;;;0.70;0.50;;;10.00;99.90;;;;;;5033137;28;20175;-71
2022/02/14 06:26:34;;;;;;;0.70;0.50;;;10.00;99.90;;;;;;5030223;28;20199;-71
2022/02/14 06:29:00;;;;;;;1.00;0.70;;;10.00;99.90;;;;;;5031017;28;20438;-71
2022/02/14 06:31:26;;;;;;;0.70;0.50;;;10.00;99.90;;;;;;5032168;28;20202;-70
2022/02/14 06:33:52;;;;;;;0.70;0.50;;;10.00;99.90;;;;;;5034753;28;20427;-71
2022/02/14 06:36:19;;;;;;;0.70;0.50;;;10.00;99.90;;;;;;5036251;28;20440;-72
2022/02/14 06:38:45;;;;;;;0.70;0.63;;;10.00;99.90;;;;;;5034231;28;21022;-72
2022/02/14 06:41:11;;;;;;;0.70;0.50;;;10.00;99.90;;;;;;5034382;28;20552;-71
2022/02/14 06:43:36;;;;;;;0.70;0.50;;;10.10;99.90;;;;;;5028309;28;20589;-71
2022/02/14 06:46:02;;;;;;;0.70;0.50;;;10.10;99.90;;;;;;5030473;28;20430;-71
2022/02/14 06:48:28;;;;;;;0.70;0.50;;;10.10;99.90;;;;;;5031999;28;20588;-71
2022/02/14 06:50:55;;;;;;;0.70;0.50;;;10.10;99.90;;;;;;5031968;28;20624;-72
2022/02/14 06:53:20;;;;;;;0.70;0.50;;;10.20;99.90;;;;;;5031749;28;20183;-72
2022/02/14 06:55:46;;;;;;;0.70;0.50;;;10.10;99.90;;;;;;5035552;28;20489;-71
2022/02/14 06:58:12;;;;;;;1.67;0.70;;;10.20;99.90;;;;;;5036287;28;20259;-71
2022/02/14 07:00:37;;;;;;;0.70;0.50;;;10.20;99.90;;;;;;5037878;28;20223;-72
2022/02/14 07:03:03;;;;;;;0.70;0.50;;;10.30;99.90;;;;;;5034465;28;20169;-72
2022/02/14 07:05:28;;;;;;;0.70;0.50;;;10.30;99.90;;;;;;5033061;28;20186;-73
2022/02/14 07:07:54;;;;;;;2.00;1.90;;;10.40;99.90;;;;;;5032312;28;20186;-72
2022/02/14 07:10:20;;;;;;;0.70;0.50;;;10.50;99.90;;;;;;5039505;28;20201;-72
2022/02/14 07:12:45;;;;;;;0.70;0.50;;;10.60;99.90;;;;;;5039690;28;20540;-72
2022/02/14 07:15:11;;;;;;;0.70;0.50;;;10.60;99.90;;;;;;5041009;28;20563;-71
2022/02/14 07:17:37;;;;;;;1.93;1.83;;;10.70;99.90;;;;;;5033844;28;20206;-71
2022/02/14 07:20:04;;;;;;;0.70;0.50;;;10.80;99.90;;;;;;5035510;28;20206;-71
2022/02/14 07:22:29;;;;;;;0.70;0.50;;;10.90;99.90;;;;;;5034265;28;20467;-72
2022/02/14 07:24:55;;;;;;;0.70;0.50;;;10.90;99.90;;;;;;5032778;28;20421;-71
2022/02/14 07:27:20;;;;;;;0.70;0.50;;;11.00;99.90;;;;;;5040896;28;20198;-72
2022/02/14 07:29:46;;;;;;;0.80;0.70;;;11.10;99.90;;;;;;5040722;28;20660;-72
2022/02/14 07:32:11;;;;;;;0.70;0.50;;;11.10;99.90;;;;;;5035019;28;20272;-71
2022/02/14 07:34:37;;;;;;;0.70;0.50;;;11.20;99.90;;;;;;5038579;28;20264;-72
2022/02/14 07:37:03;;;;;;;0.70;0.50;;;11.30;99.90;;;;;;5034515;28;20179;-72
2022/02/14 07:39:30;;;;;;;1.00;0.70;;;11.40;99.90;;;;;;5032945;28;21037;-72
2022/02/14 07:41:57;;;;;;;0.70;0.50;;;11.50;99.90;;;;;;5040112;28;20776;-72
2022/02/14 07:44:22;;;;;;;1.00;0.90;;;11.50;99.90;;;;;;5022690;28;20432;-72
2022/02/14 07:46:51;;;;;;;0.70;0.50;;;11.60;99.90;;;;;;5042081;28;20441;-71
2022/02/14 07:49:17;;;;;;;0.70;0.57;;;11.60;99.90;;;;;;5045746;28;20508;-72
2022/02/14 07:51:43;;;;;;;0.70;0.50;;;11.70;99.90;;;;;;5042629;28;20425;-72
2022/02/14 07:54:09;;;;;;;0.70;0.50;;;11.70;99.90;;;;;;5045913;28;20523;-71
2022/02/14 07:56:34;;;;;;;1.17;1.07;;;11.80;99.90;;;;;;5041081;28;20187;-72
2022/02/14 07:59:00;;;;;;;0.70;0.50;;;11.80;99.90;;;;;;5037593;28;20708;-71
2022/02/14 08:01:25;;;;;;;0.70;0.50;;;11.90;99.90;;;;;;5048383;28;20194;-70
2022/02/14 08:03:51;;;;;;;0.70;0.50;;;12.00;99.90;;;;;;5024018;28;20258;-70
2022/02/14 08:06:16;;;;;;;0.80;0.60;;;12.10;99.90;;;;;;5023465;28;20179;-71
2022/02/14 08:08:42;;;;;;;0.80;0.60;;;12.10;99.90;;;;;;5013975;28;20699;-71
2022/02/14 08:11:08;;;;;;;0.70;0.50;;;12.10;99.90;;;;;;5015041;28;20250;-71
2022/02/14 08:13:33;;;;;;;0.97;0.87;;;12.20;99.90;;;;;;5014757;28;20172;-70
2022/02/14 08:15:59;;;;;;;0.70;0.50;;;12.30;99.90;;;;;;5014176;28;20577;-72
2022/02/14 08:18:24;;;;;;;0.90;0.50;;;12.40;99.90;;;;;;5028615;28;20182;-72
2022/02/14 08:20:50;;;;;;;0.70;0.50;;;12.50;99.90;;;;;;5019223;28;20189;-72
2022/02/14 08:23:16;;;;;;;0.70;0.50;;;12.70;99.90;;;;;;5033498;28;20160;-70
2022/02/14 08:25:41;;;;;;;0.87;0.83;;;12.80;99.90;;;;;;5033357;28;20414;-70
2022/02/14 08:28:07;;;;;;;0.70;0.50;;;13.00;99.90;;;;;;5027871;28;20632;-72
2022/02/14 08:30:33;;;;;;;0.80;0.70;;;13.20;99.90;;;;;;5014825;28;20725;-71
2022/02/14 08:32:59;;;;;;;0.83;0.60;;;13.30;99.90;;;;;;5014482;28;20465;-70
2022/02/14 08:35:24;;;;;;;0.80;0.60;;;13.40;99.90;;;;;;5020701;28;20203;-70
2022/02/14 08:37:52;;;;;;;0.73;0.60;;;13.60;99.90;;;;;;5018045;28;20604;-71
2022/02/14 08:40:18;;;;;;;0.70;0.60;;;13.90;99.90;;;;;;5023595;28;20691;-70
2022/02/14 08:42:44;;;;;;;0.70;0.60;;;14.20;99.90;;;;;;5031682;28;20432;-71
2022/02/14 08:45:10;;;;;;;0.70;0.60;;;14.30;99.90;;;;;;5031420;28;20163;-71
2022/02/14 08:47:36;;;;;;;0.70;0.50;;;14.50;99.90;;;;;;5033594;28;20252;-71
2022/02/14 08:50:02;;;;;;;0.70;0.60;;;14.60;99.90;;;;;;5037890;28;20512;-71
2022/02/14 08:52:28;;;;;;;0.70;0.50;;;14.70;99.90;;;;;;5025772;28;20185;-71
2022/02/14 08:54:54;;;;;;;0.80;0.67;;;14.80;99.90;;;;;;5030767;28;20532;-71
2022/02/14 08:57:20;;;;;;;0.70;0.50;;;14.80;99.90;;;;;;5037866;28;20802;-72
2022/02/14 08:59:46;;;;;;;5.67;1.50;;;14.80;99.90;;;;;;5038478;28;20533;-71
2022/02/14 09:02:11;;;;;;;1.00;0.87;;;14.90;99.90;;;;;;5028922;28;20706;-71
2022/02/14 09:04:37;;;;;;;0.70;0.50;;;14.90;99.90;;;;;;5033439;28;20175;-71
2022/02/14 09:07:03;;;;;;;0.70;0.50;;;15.00;99.90;;;;;;5033914;28;20168;-73
2022/02/14 09:09:29;;;;;;;0.73;0.57;;;15.20;99.90;;;;;;5032044;28;20672;-72
2022/02/14 09:11:55;;;;;;;0.70;0.50;;;15.30;99.90;;;;;;5017986;28;20434;-73
2022/02/14 09:14:21;;;;;;;1.60;1.20;;;15.50;99.90;;;;;;5014804;28;20457;-72
2022/02/14 09:16:48;;;;;;;0.90;0.80;;;15.60;99.90;;;;;;5029642;28;20929;-72
2022/02/14 09:19:13;;;;;;;0.70;0.50;;;15.70;99.90;;;;;;5037024;28;20225;-72
2022/02/14 09:21:42;;;;;;;0.70;0.50;;;16.00;99.90;;;;;;5041052;28;21941;-73
2022/02/14 09:24:12;;;;;;;0.80;0.80;;;16.00;99.90;;;;;;5024960;28;20175;-72
2022/02/14 09:26:40;;;;;;;0.70;0.50;;;16.10;99.90;;;;;;5032657;28;20792;-73
2022/02/14 09:29:07;;;;;;;0.70;0.50;;;16.30;99.90;;;;;;5019564;28;20860;-71
2022/02/14 09:31:32;;;;;;;0.90;0.70;;;16.40;99.90;;;;;;5034549;28;20446;-71
2022/02/14 09:33:58;;;;;;;0.70;0.50;;;16.50;99.90;;;;;;5048581;28;20424;-73
2022/02/14 09:36:23;;;;;;;0.70;0.50;;;16.70;99.90;;;;;;5034764;28;20245;-70
2022/02/14 09:38:49;;;;;;;0.93;0.70;;;16.80;99.90;;;;;;5031788;28;20264;-71
2022/02/14 09:41:16;;;;;;;0.70;0.50;;;16.90;99.90;;;;;;5037444;28;20230;-72
2022/02/14 09:43:44;;;;;;;0.70;0.50;;;17.00;99.90;;;;;;5052543;28;20175;-73
2022/02/14 09:46:11;;;;;;;0.83;0.70;;;17.20;99.90;;;;;;5051161;28;20426;-73
2022/02/14 09:48:42;;;;;;;3.37;0.60;;;17.20;99.90;;;;;;5027763;28;20430;-72
2022/02/14 09:51:08;;;;;;;0.80;0.60;;;17.20;99.90;;;;;;5038095;28;20541;-71
2022/02/14 09:53:34;;;;;;;0.70;0.50;;;17.10;99.90;;;;;;5032291;28;20442;-71
2022/02/14 09:56:00;;;;;;;0.70;0.60;;;17.00;99.90;;;;;;5032902;28;21011;-71
2022/02/14 09:58:25;;;;;;;0.70;0.60;;;16.90;99.90;;;;;;5032202;28;20186;-71
2022/02/14 10:00:51;;;;;;;0.70;0.50;;;16.80;99.90;;;;;;5022188;28;20250;-71
2022/02/14 10:03:19;;;;;;;0.70;0.50;;;16.70;99.90;;;;;;5012804;28;20173;-71
2022/02/14 10:05:52;;;;;;;0.70;0.50;;;16.60;99.90;;;;;;5013047;28;20219;-71
2022/02/14 10:08:38;;;;;;;0.80;0.70;;;16.70;99.90;;;;;;5012962;28;20403;-71
2022/02/14 10:11:15;;;;;;;0.70;0.50;;;16.60;99.90;;;;;;5012569;28;20446;-71
2022/02/14 10:13:43;;;;;;;0.70;0.50;;;16.30;99.90;;;;;;5013310;28;20403;-73
2022/02/14 10:16:12;;;;;;;0.70;0.50;;;15.90;99.90;;;;;;5014230;28;20532;-72
2022/02/14 10:18:39;;;;;;;0.70;0.50;;;15.40;99.90;;;;;;5013175;28;20434;-71
2022/02/14 10:21:16;;;;;;;0.70;0.50;;;15.00;99.90;;;;;;5027943;28;20965;-73
2022/02/14 10:24:09;;;;;;;0.70;0.50;;;14.60;99.90;;;;;;5027733;28;20417;-72
2022/02/14 10:26:51;;;;;;;0.70;0.50;;;14.30;99.90;;;;;;5031717;28;20442;-72
2022/02/14 10:29:24;;;;;;;0.70;0.50;;;14.10;99.90;;;;;;5031552;28;20407;-72
2022/02/14 10:31:57;;;;;;;0.70;0.50;;;14.30;99.90;;;;;;5032271;28;20414;-72
2022/02/14 10:34:35;;;;;;;0.70;0.50;;;15.30;99.90;;;;;;5032045;28;20449;-73
2022/02/14 10:37:01;;;;;;;0.70;0.50;;;16.50;99.90;;;;;;5032342;28;20400;-72
2022/02/14 10:39:28;;;;;;;0.73;0.53;;;16.90;99.90;;;;;;5030533;28;20403;-71
2022/02/14 10:42:04;;;;;;;0.70;0.50;;;17.10;99.90;;;;;;5012504;28;20904;-71
2022/02/14 10:47:20;;;;;;;0.70;0.50;;;17.60;99.90;;;;;;5012330;28;20405;-71
2022/02/14 10:50:06;;;;;;;0.80;0.60;;;18.00;99.90;;;;;;5015639;28;20838;-71
2022/02/14 10:52:35;;;;;;;0.80;0.60;;;18.80;99.90;;;;;;5032097;28;20410;-72
2022/02/14 10:55:04;;;;;;;0.80;0.60;;;20.00;99.90;;;;;;5031392;28;20858;-72
2022/02/14 10:57:34;;;;;;;5.60;0.90;;;21.10;98.10;;;;;;5032050;28;20430;-72
2022/02/14 11:00:08;;;;;;;0.80;0.57;;;22.10;95.00;;;;;;5026494;28;20804;-73
2022/02/14 11:02:34;;;;;;;0.80;0.60;;;22.80;91.70;;;;;;5012488;28;20399;-73
2022/02/14 11:05:00;;;;;;;0.90;0.70;;;23.70;85.70;;;;;;5012515;28;20407;-72
2022/02/14 11:07:27;;;;;;;0.80;0.60;;;23.80;78.30;;;;;;5011219;28;20407;-71
2022/02/14 11:09:55;;;;;;;0.83;0.60;;;23.30;75.20;;;;;;5011492;28;20693;-72
2022/02/14 11:12:23;;;;;;;0.80;0.60;;;22.80;75.00;;;;;;5012357;28;20411;-71
2022/02/14 11:14:57;;;;;;;0.80;0.60;;;23.00;75.80;;;;;;5011182;28;20454;-72
2022/02/14 11:17:28;;;;;;;0.90;0.60;;;23.40;72.10;;;;;;5013038;28;20428;-72
2022/02/14 11:19:56;;;;;;;0.80;0.60;;;23.20;71.40;;;;;;5016760;28;21005;-72
2022/02/14 11:22:25;;;;;;;0.83;0.63;;;22.80;69.90;;;;;;5032278;28;20429;-71
2022/02/14 11:25:02;;;;;;;0.90;0.60;;;22.60;70.80;;;;;;5031330;28;20418;-73
2022/02/14 11:27:32;;;;;;;1.53;1.10;;;22.60;70.00;;;;;;5031184;28;20424;-71
2022/02/14 11:30:05;;;;;;;0.80;0.50;;;23.10;68.70;;;;;;5026743;28;20461;-72
2022/02/14 11:32:38;;;;;;;1.13;0.83;;;23.80;67.20;;;;;;5012630;28;20414;-72
2022/02/14 11:35:07;;;;;;;0.80;0.50;;;24.60;64.30;;;;;;5011859;28;21067;-72
2022/02/14 11:37:58;;;;;;;0.90;0.60;;;24.90;61.30;;;;;;5012075;28;20419;-72
2022/02/14 11:40:32;;;;;;;0.80;0.50;;;25.50;60.20;;;;;;5018923;28;21228;-73
2022/02/14 11:43:19;;;;;;;0.80;0.60;;;26.30;58.10;;;;;;5030241;28;20472;-72
2022/02/14 11:46:24;;;;;;;0.80;0.50;;;26.60;55.20;;;;;;5031733;28;20479;-72
2022/02/14 11:48:59;;;;;;;0.80;0.60;;;26.10;55.60;;;;;;5031723;28;20496;-71
2022/02/14 11:51:36;;;;;;;0.80;0.60;;;26.40;55.10;;;;;;5029493;28;20445;-70
2022/02/14 11:54:04;;;;;;;0.80;0.60;;;27.00;53.80;;;;;;5031061;28;20429;-71
2022/02/14 11:56:32;;;;;;;0.80;0.50;;;26.70;52.70;;;;;;5031523;28;20514;-71
2022/02/14 11:59:18;;;;;;;2.03;0.60;;;25.80;53.00;;;;;;5033667;28;20533;-72
2022/02/14 12:01:50;;;;;;;1.20;0.80;;;25.20;54.40;;;;;;5016281;28;20447;-72
2022/02/14 12:04:32;;;;;;;0.80;0.50;;;24.80;55.60;;;;;;5034350;28;20406;-71
2022/02/14 12:07:25;;;;;;;0.90;0.60;;;25.10;55.40;;;;;;5050982;28;20410;-71
2022/02/14 12:09:57;;;;;;;0.80;0.60;;;25.60;54.80;;;;;;5036281;28;20445;-71
2022/02/14 12:12:56;;;;;;;0.80;0.70;;;25.60;54.10;;;;;;5034876;28;20423;-70
2022/02/14 12:21:06;;;;;;;0.83;0.60;;;25.10;53.90;;;;;;5041906;28;20533;-71
2022/02/14 12:23:36;;;;;;;0.80;0.60;;;24.20;54.90;;;;;;5020144;28;20424;-70
2022/02/14 12:26:02;;;;;;;1.37;1.20;;;23.80;56.10;;;;;;5051586;28;20493;-70
2022/02/14 12:28:28;;;;;;;0.80;0.50;;;23.80;56.40;;;;;;5053538;28;20482;-71
2022/02/14 12:30:56;;;;;;;0.80;0.50;;;23.90;57.00;;;;;;5040568;28;20994;-70
2022/02/14 12:33:22;;;;;;;0.80;0.50;;;23.90;55.20;;;;;;5023421;28;20326;-70
2022/02/14 12:35:53;;;;;;;0.80;0.60;;;23.80;55.20;;;;;;5053779;28;20532;-71
2022/02/14 12:38:19;;;;;;;0.80;0.60;;;23.70;55.40;;;;;;5052713;28;20410;-70
2022/02/14 12:40:55;;;;;;;0.80;0.60;;;24.00;54.80;;;;;;5042058;28;20592;-70
2022/02/14 12:43:37;;;;;;;0.80;0.60;;;24.30;54.50;;;;;;5037253;28;20172;-73
2022/02/14 12:46:13;;;;;;;0.80;0.60;;;25.00;53.70;;;;;;5034386;28;20452;-73
2022/02/14 12:48:42;;;;;;;0.80;0.50;;;25.20;53.10;;;;;;5034933;28;20477;-71
2022/02/14 12:51:23;;;;;;;0.80;0.60;;;25.30;53.00;;;;;;5048382;28;20449;-70
2022/02/14 12:54:05;;;;;;;0.80;0.60;;;25.30;52.90;;;;;;5050872;28;20436;-70
2022/02/14 12:56:31;;;;;;;0.80;0.60;;;25.70;52.10;;;;;;5033982;28;20422;-70
2022/02/14 12:59:05;;;;;;;0.80;0.60;;;25.80;51.40;;;;;;5051123;28;20417;-70
2022/02/14 13:01:36;;;;;;;0.80;0.50;;;25.70;51.60;;;;;;5035918;28;20439;-71
2022/02/14 13:04:04;;;;;;;0.90;0.60;;;25.50;51.00;;;;;;5041069;28;20421;-70